Marola — IBFL — position and weather

sailwx.info

Track history (hours):
 
Tides and Currents Weather Stations Pressure Air Temp Water Temp Dewpoint Dewpoint Depression Visibility Wind Speed Wind Dir Waves Ship Positions

Marola

Last reported at 2017-Mar-20 14:33 UTC. Time now 2017-Mar-23 10:35 UTC.
Position S 24°23' W 046°14'.

Length 180 m; draft 7.1 m.

Type: Ship (hazmat cat B). MMSI: 247094900.

Date/timePositionNaut miles runAvg speedWind from/ knotsBaromVisibWave heightAir tempDewpointWater temp
2017-Mar-20 14:33S 24°23' W 046°14'1514.6
2017-Mar-20 13:33S 24°11' W 046°23'1211.5
2017-Mar-20 12:33S 23°60' W 046°20'4 0.1
2017-Mar-18 23:20S 23°56' W 046°19'4 5.1
2017-Mar-18 22:33S 24°00' W 046°20'8 8.1
2017-Mar-18 21:33S 24°08' W 046°23'7 6.9
2017-Mar-18 20:31S 24°15' W 046°21'1 1.3
2017-Mar-18 19:31S 24°16' W 046°21'1 0.5
2017-Mar-18 18:22S 24°16' W 046°20'1 1.6
2017-Mar-18 17:33S 24°15' W 046°20'2 2.4
2017-Mar-18 16:34S 24°15' W 046°18'0 0.0
2017-Mar-18 15:34S 24°15' W 046°18'0 0.0
2017-Mar-18 14:33S 24°15' W 046°18'0 0.0
2017-Mar-18 13:33S 24°15' W 046°18'0 0.0
2017-Mar-18 12:33S 24°15' W 046°18'0 0.0
2017-Mar-18 11:33S 24°15' W 046°18'0 0.0
2017-Mar-18 10:33S 24°15' W 046°17'3 2.7
2017-Mar-18 09:33S 24°14' W 046°20'6 6.2
2017-Mar-18 08:33S 24°20' W 046°17'1313.4
2017-Mar-18 07:33S 24°30' W 046°08'  
Track history (hours):
 
Tides and Currents Weather Stations Pressure Air Temp Water Temp Dewpoint Dewpoint Depression Visibility Wind Speed Wind Dir Waves Ship Positions

Marola

Last reported at 2017-Mar-20 14:33 UTC. Time now 2017-Mar-23 10:35 UTC.
Position S 24°23' W 046°14'.

Length 180 m; draft 7.1 m.

Type: Ship (hazmat cat B). MMSI: 247094900.

Date/timePositionNaut miles runAvg speedWind from/ knotsBaromVisibWave heightAir tempDewpointWater temp
2017-Mar-20 14:33S 24°23' W 046°14'1514.6
2017-Mar-20 13:33S 24°11' W 046°23'1211.5
2017-Mar-20 12:33S 23°60' W 046°20'4 0.1
2017-Mar-18 23:20S 23°56' W 046°19'4 5.1
2017-Mar-18 22:33S 24°00' W 046°20'8 8.1
2017-Mar-18 21:33S 24°08' W 046°23'7 6.9
2017-Mar-18 20:31S 24°15' W 046°21'1 1.3
2017-Mar-18 19:31S 24°16' W 046°21'1 0.5
2017-Mar-18 18:22S 24°16' W 046°20'1 1.6
2017-Mar-18 17:33S 24°15' W 046°20'2 2.4
2017-Mar-18 16:34S 24°15' W 046°18'0 0.0
2017-Mar-18 15:34S 24°15' W 046°18'0 0.0
2017-Mar-18 14:33S 24°15' W 046°18'0 0.0
2017-Mar-18 13:33S 24°15' W 046°18'0 0.0
2017-Mar-18 12:33S 24°15' W 046°18'0 0.0
2017-Mar-18 11:33S 24°15' W 046°18'0 0.0
2017-Mar-18 10:33S 24°15' W 046°17'3 2.7
2017-Mar-18 09:33S 24°14' W 046°20'6 6.2
2017-Mar-18 08:33S 24°20' W 046°17'1313.4
2017-Mar-18 07:33S 24°30' W 046°08'  

Dump ship's entire track history